createdAt,value
2018-09-03T00:02:08.553Z,2.20
2018-09-03T00:04:36.897Z,2.08
2018-09-03T00:07:05.546Z,2.40
2018-09-03T00:09:41.818Z,2.20
2018-09-03T00:12:11.094Z,2.30
2018-09-03T00:14:39.942Z,2.30
2018-09-03T00:17:09.059Z,2.47
2018-09-03T00:19:37.537Z,2.27
2018-09-03T00:22:06.569Z,2.50
2018-09-03T00:24:34.882Z,2.65
2018-09-03T00:27:03.354Z,2.77
2018-09-03T00:29:32.094Z,2.25
2018-09-03T00:32:05.729Z,2.40
2018-09-03T00:34:39.447Z,2.73
2018-09-03T00:37:13.418Z,2.60
2018-09-03T00:39:46.818Z,2.20
2018-09-03T00:42:20.406Z,2.60
2018-09-03T00:44:53.994Z,3.17
2018-09-03T00:47:22.540Z,2.60
2018-09-03T00:49:51.130Z,2.62
2018-09-03T00:52:19.760Z,2.47
2018-09-03T00:54:48.109Z,2.50
2018-09-03T00:57:16.668Z,2.75
2018-09-03T00:59:44.978Z,2.30
2018-09-03T01:02:13.354Z,2.02
2018-09-03T01:04:41.708Z,2.20
2018-09-03T01:07:10.103Z,2.37
2018-09-03T01:09:38.747Z,2.53
2018-09-03T01:12:07.049Z,2.60
2018-09-03T01:14:35.337Z,2.27
2018-09-03T01:17:03.653Z,2.67
2018-09-03T01:19:32.338Z,2.60
2018-09-03T01:22:00.716Z,2.70
2018-09-03T01:24:29.025Z,2.77
2018-09-03T01:26:57.348Z,2.30
2018-09-03T01:29:25.683Z,2.43
2018-09-03T01:31:55.560Z,2.60
2018-09-03T01:34:24.758Z,2.80
2018-09-03T01:36:53.145Z,3.13
2018-09-03T01:39:22.748Z,2.80
2018-09-03T01:41:51.078Z,2.70
2018-09-03T01:44:19.396Z,2.60
2018-09-03T01:46:47.982Z,2.67
2018-09-03T01:49:16.266Z,2.70
2018-09-03T01:51:44.936Z,2.53
2018-09-03T01:54:13.205Z,2.73
2018-09-03T01:56:41.718Z,2.92
2018-09-03T01:59:09.981Z,2.57
2018-09-03T02:01:38.556Z,2.80
2018-09-03T02:04:07.014Z,2.90
2018-09-03T02:06:35.514Z,2.85
2018-09-03T02:09:06.034Z,2.83
2018-09-03T02:11:34.376Z,2.90
2018-09-03T02:14:03.487Z,3.02
2018-09-03T02:16:31.818Z,3.00
2018-09-03T02:19:00.167Z,3.13
2018-09-03T02:21:28.467Z,2.47
2018-09-03T02:23:56.802Z,2.80
2018-09-03T02:26:25.109Z,2.98
2018-09-03T02:28:53.544Z,2.80
2018-09-03T02:31:21.849Z,3.00
2018-09-03T02:33:51.129Z,3.00
2018-09-03T02:36:19.673Z,3.33
2018-09-03T02:38:48.182Z,4.15
2018-09-03T02:41:16.582Z,3.00
2018-09-03T02:43:45.358Z,3.20
2018-09-03T02:46:13.702Z,3.00
2018-09-03T02:48:42.218Z,2.72
2018-09-03T02:51:10.494Z,2.80
2018-09-03T02:53:38.801Z,3.45
2018-09-03T02:56:07.166Z,2.70
2018-09-03T02:58:35.467Z,2.95
2018-09-03T03:01:03.875Z,3.17
2018-09-03T03:03:32.503Z,3.10
2018-09-03T03:06:00.795Z,3.07
2018-09-03T03:08:29.183Z,3.30
2018-09-03T03:10:57.780Z,3.27
2018-09-03T03:13:26.156Z,3.67
2018-09-03T03:15:54.534Z,3.30
2018-09-03T03:18:22.797Z,3.20
2018-09-03T03:20:51.203Z,3.00
2018-09-03T03:23:19.487Z,3.40
2018-09-03T03:25:47.751Z,3.50
2018-09-03T03:28:16.041Z,3.10
2018-09-03T03:30:44.695Z,3.80
2018-09-03T03:33:13.058Z,3.40
2018-09-03T03:35:41.859Z,3.77
2018-09-03T03:38:10.234Z,3.67
2018-09-03T03:40:38.657Z,3.30
2018-09-03T03:43:06.967Z,3.57
2018-09-03T03:45:35.270Z,3.90
2018-09-03T03:48:03.877Z,3.63
2018-09-03T03:50:32.203Z,3.70
2018-09-03T03:53:00.541Z,3.43
2018-09-03T03:55:28.903Z,4.08
2018-09-03T03:57:57.487Z,3.90
2018-09-03T04:00:25.776Z,4.17
2018-09-03T04:02:54.300Z,4.20
2018-09-03T04:05:22.641Z,3.90
2018-09-03T04:07:50.943Z,3.83
2018-09-03T04:10:19.578Z,3.83
2018-09-03T04:12:53.765Z,3.90
2018-09-03T04:15:22.847Z,3.80
2018-09-03T04:17:52.460Z,3.50
2018-09-03T04:20:20.935Z,3.30
2018-09-03T04:22:50.258Z,3.90
2018-09-03T04:25:18.492Z,4.07
2018-09-03T04:27:46.749Z,3.80
2018-09-03T04:30:15.134Z,3.83
2018-09-03T04:32:43.615Z,3.80
2018-09-03T04:35:11.951Z,3.75
2018-09-03T04:37:40.255Z,3.70
2018-09-03T04:40:08.667Z,3.52
2018-09-03T04:42:36.960Z,3.73
2018-09-03T04:45:05.294Z,3.87
2018-09-03T04:47:33.557Z,3.98
2018-09-03T04:50:01.836Z,3.63
2018-09-03T04:52:30.188Z,3.63
2018-09-03T04:54:58.546Z,3.47
2018-09-03T04:57:27.238Z,3.60
2018-09-03T04:59:55.564Z,3.40
2018-09-03T05:02:23.833Z,3.47
2018-09-03T05:04:52.255Z,4.05
2018-09-03T05:07:20.565Z,3.60
2018-09-03T05:09:49.161Z,3.80
2018-09-03T05:12:18.187Z,3.43
2018-09-03T05:14:46.523Z,3.67
2018-09-03T05:17:14.999Z,3.87
2018-09-03T05:19:43.313Z,3.90
2018-09-03T05:22:11.654Z,3.90
2018-09-03T05:24:40.042Z,4.10
2018-09-03T05:27:08.345Z,3.70
2018-09-03T05:29:36.694Z,4.03
2018-09-03T05:32:04.992Z,4.40
2018-09-03T05:34:33.490Z,3.60
2018-09-03T05:37:01.867Z,3.80
2018-09-03T05:39:31.649Z,4.10
2018-09-03T05:42:00.036Z,3.90
2018-09-03T05:44:28.382Z,3.42
2018-09-03T05:46:56.714Z,3.43
2018-09-03T05:49:25.013Z,4.07
2018-09-03T05:51:53.270Z,3.43
2018-09-03T05:54:21.629Z,3.60
2018-09-03T05:56:49.906Z,3.72
2018-09-03T05:59:18.238Z,3.67
2018-09-03T06:01:46.630Z,3.30
2018-09-03T06:04:14.971Z,3.80
2018-09-03T06:06:43.250Z,3.77
2018-09-03T06:09:12.743Z,3.40
2018-09-03T06:11:41.210Z,4.37
2018-09-03T06:14:10.206Z,3.80
2018-09-03T06:16:38.824Z,3.33
2018-09-03T06:19:07.177Z,3.40
2018-09-03T06:21:35.537Z,3.55
2018-09-03T06:24:03.890Z,3.80
2018-09-03T06:26:32.583Z,3.80
2018-09-03T06:29:01.205Z,4.00
2018-09-03T06:31:29.559Z,3.77
2018-09-03T06:33:57.933Z,4.10
2018-09-03T06:36:26.546Z,3.93
2018-09-03T06:38:54.982Z,3.72
2018-09-03T06:41:23.569Z,4.10
2018-09-03T06:43:52.022Z,3.90
2018-09-03T06:46:20.355Z,4.30
2018-09-03T06:48:49.041Z,4.00
2018-09-03T06:51:17.468Z,4.15
2018-09-03T06:53:46.041Z,3.70
2018-09-03T06:56:14.387Z,4.00
2018-09-03T06:58:42.853Z,3.90
2018-09-03T07:01:12.022Z,4.43
2018-09-03T07:03:40.437Z,4.07
2018-09-03T07:06:08.796Z,4.50
2018-09-03T07:08:38.162Z,4.40
2018-09-03T07:11:07.330Z,4.30
2018-09-03T07:13:35.649Z,4.12
2018-09-03T07:16:04.219Z,4.20
2018-09-03T07:18:33.162Z,3.92
2018-09-03T07:21:02.029Z,4.30
2018-09-03T07:23:30.336Z,4.93
2018-09-03T07:25:59.025Z,5.37
2018-09-03T07:28:27.398Z,5.13
2018-09-03T07:30:56.595Z,5.97
2018-09-03T07:33:24.884Z,5.50
2018-09-03T07:35:53.569Z,5.73
2018-09-03T07:38:21.882Z,6.10
2018-09-03T07:40:50.261Z,5.62
2018-09-03T07:43:18.782Z,5.80
2018-09-03T07:45:47.704Z,5.40
2018-09-03T07:48:15.957Z,4.80
2018-09-03T07:50:44.462Z,5.53
2018-09-03T07:53:13.174Z,4.95
2018-09-03T07:55:41.816Z,4.70
2018-09-03T07:58:10.301Z,4.90
2018-09-03T08:00:38.871Z,5.53
2018-09-03T08:03:07.443Z,5.70
2018-09-03T08:05:36.202Z,4.95
2018-09-03T08:08:04.532Z,4.53
2018-09-03T08:10:33.005Z,4.80
2018-09-03T08:13:01.368Z,4.70
2018-09-03T08:15:29.737Z,4.63
2018-09-03T08:17:58.255Z,4.60
2018-09-03T08:20:26.694Z,4.40
2018-09-03T08:22:55.330Z,4.97
2018-09-03T08:25:23.678Z,4.27
2018-09-03T08:27:52.222Z,4.37
2018-09-03T08:30:20.630Z,4.60
2018-09-03T08:32:48.894Z,4.28
2018-09-03T08:35:17.606Z,4.10
2018-09-03T08:37:45.889Z,4.92
2018-09-03T08:40:14.382Z,4.87
2018-09-03T08:42:42.747Z,5.25
2018-09-03T08:45:11.117Z,5.00
2018-09-03T08:47:39.422Z,4.53
2018-09-03T08:50:07.689Z,4.93
2018-09-03T08:52:36.049Z,5.07
2018-09-03T08:55:04.407Z,4.80
2018-09-03T08:57:32.909Z,5.87
2018-09-03T09:00:05.810Z,5.12
2018-09-03T09:02:34.349Z,5.03
2018-09-03T09:05:03.368Z,4.83
2018-09-03T09:07:31.932Z,5.83
2018-09-03T09:10:00.582Z,5.30
2018-09-03T09:12:29.933Z,4.97
2018-09-03T09:14:58.240Z,4.90
2018-09-03T09:17:26.827Z,4.90
2018-09-03T09:19:55.210Z,5.35
2018-09-03T09:22:23.853Z,5.30
2018-09-03T09:24:52.409Z,5.40
2018-09-03T09:27:20.711Z,4.80
2018-09-03T09:29:49.603Z,5.08
2018-09-03T09:32:18.090Z,4.97
2018-09-03T09:34:47.102Z,4.58
2018-09-03T09:37:15.464Z,4.47
2018-09-03T09:39:44.273Z,4.60
2018-09-03T09:42:12.624Z,4.83
2018-09-03T09:44:40.940Z,4.30
2018-09-03T09:47:09.307Z,4.93
2018-09-03T09:49:38.775Z,4.80
2018-09-03T09:52:07.153Z,3.93
2018-09-03T09:54:35.476Z,4.25
2018-09-03T09:57:03.906Z,3.77
2018-09-03T09:59:32.258Z,4.22
2018-09-03T10:02:00.579Z,4.03
2018-09-03T10:04:28.925Z,4.03
2018-09-03T10:06:57.698Z,4.23
2018-09-03T10:09:26.049Z,4.53
2018-09-03T10:11:54.500Z,4.17
2018-09-03T10:14:23.263Z,4.70
2018-09-03T10:16:51.857Z,3.80
2018-09-03T10:19:20.754Z,4.30
2018-09-03T10:21:49.222Z,4.60
2018-09-03T10:24:17.714Z,4.30
2018-09-03T10:26:46.192Z,4.10
2018-09-03T10:29:14.766Z,3.58
2018-09-03T10:31:43.353Z,4.10
2018-09-03T10:34:11.745Z,4.30
2018-09-03T10:36:40.438Z,3.70
2018-09-03T10:39:09.095Z,3.90
2018-09-03T10:41:37.924Z,3.20
2018-09-03T10:44:06.721Z,3.70
2018-09-03T10:46:34.975Z,3.00
2018-09-03T10:49:03.562Z,3.70
2018-09-03T10:51:31.924Z,3.25
2018-09-03T10:54:00.664Z,3.20
2018-09-03T10:56:29.371Z,3.00
2018-09-03T10:58:58.691Z,3.10
2018-09-03T11:01:27.939Z,2.73
2018-09-03T11:03:56.613Z,2.67
2018-09-03T11:06:25.054Z,2.40
2018-09-03T11:08:53.377Z,3.07
2018-09-03T11:11:21.657Z,2.58
2018-09-03T11:13:50.300Z,2.87
2018-09-03T11:16:18.745Z,2.70
2018-09-03T11:18:47.115Z,3.13
2018-09-03T11:21:15.565Z,2.67
2018-09-03T11:23:43.966Z,2.60
2018-09-03T11:26:13.018Z,2.47
2018-09-03T11:28:41.563Z,2.77
2018-09-03T11:31:09.979Z,2.70
2018-09-03T11:33:38.453Z,2.50
2018-09-03T11:36:06.916Z,2.55
2018-09-03T11:38:35.359Z,2.70
2018-09-03T11:41:03.862Z,2.65
2018-09-03T11:43:32.619Z,2.73
2018-09-03T11:46:00.913Z,2.83
2018-09-03T11:48:29.367Z,2.70
2018-09-03T11:50:57.714Z,2.67
2018-09-03T11:53:26.207Z,2.95
2018-09-03T11:55:54.590Z,2.50
2018-09-03T11:58:23.362Z,2.37
2018-09-03T12:00:56.318Z,2.57
2018-09-03T12:03:24.953Z,2.43
2018-09-03T12:05:53.550Z,1.95
2018-09-03T12:08:22.614Z,2.65
2018-09-03T12:10:51.243Z,2.20
2018-09-03T12:13:19.767Z,2.40
2018-09-03T12:15:53.349Z,2.50
2018-09-03T12:18:22.562Z,2.60
2018-09-03T12:20:51.153Z,2.30
2018-09-03T12:23:19.658Z,2.33
2018-09-03T12:25:48.750Z,2.30
2018-09-03T12:28:17.253Z,2.37
2018-09-03T12:30:45.758Z,2.30
2018-09-03T12:33:15.339Z,2.45
2018-09-03T12:35:44.002Z,2.40
2018-09-03T12:38:12.686Z,2.50
2018-09-03T12:40:41.176Z,2.40
2018-09-03T12:43:10.473Z,2.30
2018-09-03T12:45:44.538Z,2.67
2018-09-03T12:48:13.282Z,2.43
2018-09-03T12:50:41.799Z,2.50
2018-09-03T12:53:10.408Z,2.35
2018-09-03T12:55:38.777Z,2.40
2018-09-03T12:58:07.251Z,2.40
2018-09-03T13:00:38.678Z,2.20
2018-09-03T13:03:04.401Z,2.33
2018-09-03T13:05:33.147Z,2.30
2018-09-03T13:08:01.429Z,2.43
2018-09-03T13:10:30.111Z,2.20
2018-09-03T13:12:58.594Z,2.23
2018-09-03T13:15:27.104Z,2.40
2018-09-03T13:17:55.514Z,2.23
2018-09-03T13:20:24.350Z,2.50
2018-09-03T13:22:53.261Z,2.30
2018-09-03T13:25:22.235Z,2.30
2018-09-03T13:27:50.926Z,2.10
2018-09-03T13:30:19.483Z,2.40
2018-09-03T13:32:48.822Z,2.30
2018-09-03T13:35:17.452Z,2.30
2018-09-03T13:37:46.721Z,2.30
2018-09-03T13:40:15.382Z,2.70
2018-09-03T13:42:43.968Z,2.30
2018-09-03T13:45:13.142Z,2.33
2018-09-03T13:47:42.408Z,2.58
2018-09-03T13:50:11.142Z,2.40
2018-09-03T13:52:40.052Z,2.45
2018-09-03T13:55:09.229Z,2.30
2018-09-03T13:57:37.989Z,2.17
2018-09-03T14:00:08.836Z,2.40
2018-09-03T14:02:38.176Z,2.17
2018-09-03T14:05:06.774Z,2.27
2018-09-03T14:07:35.373Z,2.25
2018-09-03T14:10:05.211Z,2.30
2018-09-03T14:12:33.772Z,2.20
2018-09-03T14:15:02.597Z,2.20
2018-09-03T14:17:31.245Z,1.95
2018-09-03T14:19:59.660Z,2.13
2018-09-03T14:22:28.392Z,2.20
2018-09-03T14:24:58.826Z,2.30
2018-09-03T14:27:27.221Z,2.30
2018-09-03T14:29:55.704Z,2.22
2018-09-03T14:32:24.055Z,2.47
2018-09-03T14:34:53.551Z,2.47
2018-09-03T14:37:22.238Z,2.20
2018-09-03T14:39:50.586Z,2.30
2018-09-03T14:42:19.254Z,2.37
2018-09-03T14:44:47.814Z,2.63
2018-09-03T14:47:17.515Z,2.10
2018-09-03T14:49:46.437Z,2.40
2018-09-03T14:52:14.902Z,2.10
2018-09-03T14:54:43.177Z,2.30
2018-09-03T14:57:11.536Z,2.43
2018-09-03T14:59:39.821Z,2.50
2018-09-03T15:02:08.122Z,2.57
2018-09-03T15:04:37.439Z,2.10
2018-09-03T15:07:06.174Z,2.15
2018-09-03T15:09:34.455Z,2.30
2018-09-03T15:12:03.138Z,2.67
2018-09-03T15:14:31.546Z,2.40
2018-09-03T15:16:59.938Z,2.40
2018-09-03T15:19:28.310Z,2.27
2018-09-03T15:21:57.433Z,2.07
2018-09-03T15:24:26.518Z,2.30
2018-09-03T15:26:55.351Z,2.67
2018-09-03T15:29:23.838Z,2.30
2018-09-03T15:31:52.834Z,2.37
2018-09-03T15:34:21.403Z,2.40
2018-09-03T15:36:49.955Z,2.10
2018-09-03T15:39:18.685Z,2.40
2018-09-03T15:41:47.121Z,2.58
2018-09-03T15:44:15.782Z,2.60
2018-09-03T15:46:44.674Z,2.37
2018-09-03T15:49:13.202Z,2.50
2018-09-03T15:51:43.952Z,2.70
2018-09-03T15:54:12.447Z,2.77
2018-09-03T15:56:40.890Z,2.40
2018-09-03T15:59:09.926Z,2.60
2018-09-03T16:01:38.828Z,2.77
2018-09-03T16:04:07.514Z,2.40
2018-09-03T16:06:36.755Z,2.70
2018-09-03T16:09:08.118Z,2.20
2018-09-03T16:11:36.937Z,2.50
2018-09-03T16:14:05.716Z,2.70
2018-09-03T16:16:34.389Z,2.45
2018-09-03T16:19:02.731Z,2.40
2018-09-03T16:21:31.174Z,2.60
2018-09-03T16:23:59.582Z,2.60
2018-09-03T16:26:28.449Z,2.40
2018-09-03T16:28:56.773Z,2.33
2018-09-03T16:31:25.102Z,2.50
2018-09-03T16:33:53.630Z,2.70
2018-09-03T16:36:22.019Z,2.73
2018-09-03T16:38:50.323Z,2.50
2018-09-03T16:41:18.761Z,2.67
2018-09-03T16:43:47.376Z,2.20
2018-09-03T16:46:15.727Z,2.67
2018-09-03T16:48:44.021Z,2.55
2018-09-03T16:51:12.439Z,2.73
2018-09-03T16:53:41.601Z,2.70
2018-09-03T16:56:10.429Z,2.67
2018-09-03T16:58:38.777Z,2.80
2018-09-03T17:01:07.565Z,2.80
2018-09-03T17:03:35.805Z,2.80
2018-09-03T17:06:04.458Z,2.47
2018-09-03T17:08:33.282Z,2.73
2018-09-03T17:11:01.614Z,2.50
2018-09-03T17:13:29.979Z,2.50
2018-09-03T17:15:58.287Z,2.50
2018-09-03T17:18:26.581Z,2.50
2018-09-03T17:20:55.179Z,2.80
2018-09-03T17:23:23.478Z,2.70
2018-09-03T17:25:51.785Z,2.70
2018-09-03T17:28:20.022Z,2.30
2018-09-03T17:30:48.323Z,2.77
2018-09-03T17:33:16.923Z,2.52
2018-09-03T17:35:45.232Z,2.90
2018-09-03T17:38:14.225Z,2.75
2018-09-03T17:40:43.026Z,2.90
2018-09-03T17:43:11.535Z,2.63
2018-09-03T17:45:39.893Z,2.90
2018-09-03T17:48:08.515Z,2.67
2018-09-03T17:50:36.838Z,2.73
2018-09-03T17:53:05.123Z,2.90
2018-09-03T17:55:33.918Z,2.80
2018-09-03T17:58:02.258Z,2.50
2018-09-03T18:05:51.384Z,2.70
2018-09-03T18:08:20.061Z,2.80
2018-09-03T18:10:48.397Z,2.87
2018-09-03T18:13:16.576Z,2.63
2018-09-03T18:15:45.170Z,2.70
2018-09-03T18:18:13.510Z,2.60
2018-09-03T18:20:42.029Z,3.00
2018-09-03T18:23:10.273Z,2.53
2018-09-03T18:25:38.538Z,2.70
2018-09-03T18:28:07.007Z,2.90
2018-09-03T18:30:35.641Z,2.85
2018-09-03T18:33:05.151Z,2.80
2018-09-03T18:35:33.441Z,2.73
2018-09-03T18:38:01.709Z,2.90
2018-09-03T18:40:30.020Z,2.47
2018-09-03T18:43:00.277Z,2.97
2018-09-03T18:45:28.934Z,2.60
2018-09-03T18:47:57.313Z,2.40
2018-09-03T18:50:25.590Z,2.90
2018-09-03T18:52:53.941Z,2.90
2018-09-03T18:55:22.269Z,2.60
2018-09-03T18:57:50.596Z,2.90
2018-09-03T19:00:18.968Z,3.03
2018-09-03T19:02:47.321Z,3.00
2018-09-03T19:05:15.600Z,2.90
2018-09-03T19:07:43.885Z,3.50
2018-09-03T19:10:12.175Z,3.50
2018-09-03T19:12:40.509Z,3.20
2018-09-03T19:15:09.118Z,3.50
2018-09-03T19:17:37.453Z,2.73
2018-09-03T19:20:05.790Z,3.83
2018-09-03T19:22:34.411Z,3.20
2018-09-03T19:25:03.060Z,3.05
2018-09-03T19:27:31.388Z,3.40
2018-09-03T19:30:00.112Z,3.40
2018-09-03T19:32:28.532Z,3.17
2018-09-03T19:34:56.858Z,3.17
2018-09-03T19:37:25.270Z,3.72
2018-09-03T19:39:53.564Z,3.50
2018-09-03T19:42:22.134Z,3.77
2018-09-03T19:44:50.449Z,4.00
2018-09-03T19:47:19.108Z,4.20
2018-09-03T19:49:47.713Z,3.90
2018-09-03T19:52:16.330Z,4.00
2018-09-03T19:54:44.706Z,3.60
2018-09-03T19:57:13.072Z,3.37
2018-09-03T19:59:41.454Z,3.35
2018-09-03T20:02:09.767Z,3.27
2018-09-03T20:04:38.075Z,3.83
2018-09-03T20:07:06.419Z,3.70
2018-09-03T20:09:34.934Z,3.17
2018-09-03T20:12:03.317Z,3.60
2018-09-03T20:14:31.667Z,3.72
2018-09-03T20:17:00.115Z,3.50
2018-09-03T20:19:28.812Z,3.58
2018-09-03T20:21:57.343Z,4.43
2018-09-03T20:24:26.096Z,3.60
2018-09-03T20:26:54.355Z,3.80
2018-09-03T20:29:22.740Z,3.83
2018-09-03T20:31:51.064Z,3.95
2018-09-03T20:34:19.498Z,4.20
2018-09-03T20:36:47.840Z,3.67
2018-09-03T20:39:16.350Z,4.10
2018-09-03T20:41:44.790Z,3.85
2018-09-03T20:44:13.110Z,4.20
2018-09-03T20:46:41.408Z,3.90
2018-09-03T20:49:09.665Z,4.07
2018-09-03T20:51:38.021Z,3.93
2018-09-03T20:54:06.244Z,3.65
2018-09-03T20:56:34.582Z,4.27
2018-09-03T20:59:02.899Z,4.25
2018-09-03T21:01:31.513Z,4.03
2018-09-03T21:03:59.718Z,4.10
2018-09-03T21:06:28.014Z,4.40
2018-09-03T21:08:56.261Z,4.80
2018-09-03T21:11:24.630Z,4.58
2018-09-03T21:13:52.937Z,4.03
2018-09-03T21:16:21.422Z,4.47
2018-09-03T21:18:49.749Z,4.87
2018-09-03T21:21:18.035Z,4.97
2018-09-03T21:23:46.581Z,4.83
2018-09-03T21:26:15.241Z,5.40
2018-09-03T21:28:43.852Z,5.30
2018-09-03T21:31:12.186Z,4.37
2018-09-03T21:33:40.473Z,5.20
2018-09-03T21:36:08.818Z,5.20
2018-09-03T21:38:37.437Z,5.45
2018-09-03T21:41:06.025Z,4.90
2018-09-03T21:43:34.454Z,5.43
2018-09-03T21:46:02.816Z,5.07
2018-09-03T21:48:31.322Z,5.27
2018-09-03T21:51:00.008Z,5.40
2018-09-03T21:53:28.627Z,5.30
2018-09-03T21:55:56.897Z,6.17
2018-09-03T21:58:25.253Z,6.90
2018-09-03T22:00:53.629Z,6.77
2018-09-03T22:03:21.964Z,6.67
2018-09-03T22:05:50.386Z,6.33
2018-09-03T22:08:19.097Z,6.22
2018-09-03T22:10:47.764Z,6.30
2018-09-03T22:13:16.313Z,6.30
2018-09-03T22:15:44.736Z,6.37
2018-09-03T22:18:13.221Z,5.90
2018-09-03T22:20:41.572Z,5.53
2018-09-03T22:23:09.906Z,6.00
2018-09-03T22:25:38.228Z,5.53
2018-09-03T22:28:08.609Z,6.57
2018-09-03T22:30:37.309Z,5.43
2018-09-03T22:33:05.612Z,6.22
2018-09-03T22:35:34.634Z,5.70
2018-09-03T22:38:02.914Z,6.43
2018-09-03T22:40:31.273Z,6.40
2018-09-03T22:42:59.617Z,6.37
2018-09-03T22:45:28.095Z,6.62
2018-09-03T22:47:56.421Z,6.00
2018-09-03T22:50:24.722Z,6.70
2018-09-03T22:52:53.030Z,5.80
2018-09-03T22:55:21.344Z,6.33
2018-09-03T22:57:49.585Z,6.05
2018-09-03T23:00:18.065Z,5.93
2018-09-03T23:02:46.929Z,6.28
2018-09-03T23:05:15.235Z,6.22
2018-09-03T23:07:45.605Z,6.50
2018-09-03T23:10:13.884Z,6.37
2018-09-03T23:12:42.801Z,6.42
2018-09-03T23:15:11.240Z,5.90
2018-09-03T23:17:39.542Z,6.93
2018-09-03T23:20:07.841Z,6.37
2018-09-03T23:22:36.423Z,6.20
2018-09-03T23:25:04.738Z,6.58
2018-09-03T23:27:41.574Z,5.97
2018-09-03T23:30:10.769Z,5.97
2018-09-03T23:32:39.070Z,5.83
2018-09-03T23:35:07.418Z,5.67
2018-09-03T23:37:35.883Z,6.23
2018-09-03T23:40:04.492Z,6.40
2018-09-03T23:42:32.823Z,6.20
2018-09-03T23:45:01.147Z,6.17
2018-09-03T23:47:29.526Z,6.77
2018-09-03T23:49:58.162Z,7.20
2018-09-03T23:52:26.489Z,6.60
2018-09-03T23:54:55.094Z,6.27
2018-09-03T23:57:23.364Z,6.43
2018-09-03T23:59:52.209Z,6.72
